Time;durP1;ratioP1;P1;durP2;ratioP2;P2;SDS_P1;SDS_P2;PMS_P1;PMS_P2;Temp;Humidity;BMP_temperature;BMP_pressure;BME280_temperature;BME280_humidity;BME280_pressure;Samples;Min_cycle;Max_cycle;Signal;HPM_P1;HPM_P2
2022/11/14 00:02:20;;;;;;;13.68;7.75;;;;;;;7.83;51.33;94923.53;5088358;28;20035;-77
2022/11/14 00:04:48;;;;;;;18.50;8.73;;;;;;;7.89;51.21;94931.22;5075114;28;20024;-76
2022/11/14 00:07:14;;;;;;;16.65;9.55;;;;;;;7.85;51.32;94927.53;5088267;28;20062;-76
2022/11/14 00:09:41;;;;;;;21.48;11.95;;;;;;;7.84;51.28;94927.78;5089402;28;20495;-77
2022/11/14 00:12:08;;;;;;;26.38;13.80;;;;;;;7.63;51.51;94895.25;5088529;28;20502;-77
2022/11/14 00:14:35;;;;;;;28.27;14.52;;;;;;;7.75;51.37;94911.66;5089827;28;20033;-77
2022/11/14 00:17:00;;;;;;;26.80;15.23;;;;;;;7.80;51.53;94922.25;5087109;28;20653;-77
2022/11/14 00:19:25;;;;;;;26.77;15.00;;;;;;;7.78;51.58;94940.25;5088559;28;20024;-76
2022/11/14 00:21:52;;;;;;;26.52;15.70;;;;;;;7.77;51.32;94927.28;5086138;28;20383;-76
2022/11/14 00:24:18;;;;;;;28.65;16.90;;;;;;;7.60;51.52;94916.94;5078830;28;20485;-76
2022/11/14 00:26:43;;;;;;;30.30;16.67;;;;;;;7.71;51.62;94934.41;5088157;28;20024;-76
2022/11/14 00:29:13;;;;;;;36.95;17.13;;;;;;;7.62;51.48;94923.59;5086880;28;20597;-76
2022/11/14 00:31:38;;;;;;;27.50;14.55;;;;;;;7.67;51.80;94923.56;5086319;28;20051;-77
2022/11/14 00:34:04;;;;;;;30.02;17.08;;;;;;;7.52;51.73;94898.97;5087906;28;20839;-76
2022/11/14 00:36:30;;;;;;;24.95;15.93;;;;;;;7.53;51.67;94893.38;5087491;28;20085;-76
2022/11/14 00:38:55;;;;;;;30.65;15.90;;;;;;;7.66;51.33;94921.97;5068933;28;20019;-76
2022/11/14 00:41:21;;;;;;;34.00;16.00;;;;;;;7.60;51.55;94912.44;5088748;27;20023;-75
2022/11/14 00:43:46;;;;;;;26.50;15.27;;;;;;;7.58;51.32;94909.25;5093105;27;20028;-76
2022/11/14 00:46:12;;;;;;;21.15;12.30;;;;;;;7.42;51.03;94894.47;5092413;27;20037;-76
2022/11/14 00:48:37;;;;;;;21.10;12.43;;;;;;;7.62;51.38;94934.19;5089933;27;20148;-77
2022/11/14 00:51:03;;;;;;;25.35;14.00;;;;;;;7.55;51.75;94917.75;5089748;27;20024;-76
2022/11/14 00:53:29;;;;;;;21.50;12.90;;;;;;;7.64;51.72;94924.09;5092068;27;20589;-77
2022/11/14 00:55:54;;;;;;;19.05;11.02;;;;;;;7.64;51.43;94925.94;5088376;27;20028;-76
2022/11/14 00:58:19;;;;;;;19.52;10.23;;;;;;;7.51;51.57;94902.66;5091861;27;20394;-76
2022/11/14 01:00:45;;;;;;;17.30;10.40;;;;;;;7.37;51.59;94881.25;5090805;27;20080;-76
2022/11/14 01:03:10;;;;;;;18.88;10.07;;;;;;;7.59;51.47;94916.16;5091129;27;20054;-77
2022/11/14 01:05:41;;;;;;;14.57;8.80;;;;;;;7.39;51.51;94879.13;5089117;27;20058;-76
2022/11/14 01:08:06;;;;;;;17.65;8.45;;;;;;;7.59;51.66;94913.50;5089987;27;20023;-77
2022/11/14 01:10:32;;;;;;;17.83;8.80;;;;;;;7.51;51.45;94908.75;5092308;27;20039;-76
2022/11/14 01:12:57;;;;;;;18.05;10.25;;;;;;;7.54;51.43;94924.09;5092588;27;20027;-76
2022/11/14 01:15:22;;;;;;;16.17;9.23;;;;;;;7.51;51.17;94919.34;5091680;27;20031;-76
2022/11/14 01:17:48;;;;;;;15.60;7.40;;;;;;;7.20;51.67;94870.94;5091194;27;20046;-76
2022/11/14 01:20:14;;;;;;;13.88;8.02;;;;;;;7.35;51.57;94888.66;5092703;27;20084;-77
2022/11/14 01:22:40;;;;;;;14.32;8.35;;;;;;;7.37;51.62;94897.13;5074093;28;20686;-76
2022/11/14 01:25:05;;;;;;;15.98;8.60;;;;;;;7.44;51.71;94918.03;5091049;27;20032;-76
2022/11/14 01:27:31;;;;;;;13.85;8.18;;;;;;;7.33;51.68;94901.38;5092066;27;20016;-76
2022/11/14 01:29:56;;;;;;;17.75;9.13;;;;;;;7.42;51.93;94905.06;5089830;27;20074;-76
2022/11/14 01:32:21;;;;;;;18.08;8.82;;;;;;;7.18;51.78;94869.63;5091287;27;20020;-76
2022/11/14 01:34:47;;;;;;;21.92;11.73;;;;;;;7.42;51.58;94898.97;5078562;27;20024;-76
2022/11/14 01:37:12;;;;;;;27.52;14.10;;;;;;;7.31;51.57;94887.59;5088960;27;20636;-77
2022/11/14 01:39:38;;;;;;;25.83;14.43;;;;;;;7.36;51.60;94895.53;5090983;27;20023;-76
2022/11/14 01:42:03;;;;;;;31.35;16.45;;;;;;;7.29;51.55;94882.56;5085459;27;20470;-76
2022/11/14 01:44:44;;;;;;;28.15;14.35;;;;;;;7.37;51.77;94899.78;5090469;27;20451;-76
2022/11/14 01:47:10;;;;;;;29.60;15.50;;;;;;;7.36;51.91;94895.53;5074972;28;20092;-76
2022/11/14 01:49:44;;;;;;;21.40;11.23;;;;;;;7.35;51.56;94882.56;5094793;27;20499;-77
2022/11/14 01:52:12;;;;;;;19.25;10.45;;;;;;;7.16;51.53;94858.50;5089808;27;20472;-77
2022/11/14 01:54:42;;;;;;;13.82;8.77;;;;;;;7.21;51.67;94861.16;5089225;27;20517;-76
2022/11/14 01:57:09;;;;;;;16.23;9.65;;;;;;;7.32;51.69;94878.63;5092569;27;20484;-77
2022/11/14 01:59:43;;;;;;;15.43;9.88;;;;;;;7.15;51.40;94847.13;5091492;28;20038;-76
2022/11/14 02:02:17;;;;;;;17.25;10.77;;;;;;;7.14;51.49;94856.13;5090512;27;20476;-77
2022/11/14 02:04:50;;;;;;;23.00;12.57;;;;;;;7.22;51.32;94874.13;5056471;27;20036;-76
2022/11/14 02:07:16;;;;;;;29.15;14.88;;;;;;;7.01;51.54;94845.28;5087106;27;20035;-77
2022/11/14 02:09:44;;;;;;;21.85;12.13;;;;;;;7.10;51.60;94852.41;5093018;27;20031;-77
2022/11/14 02:12:13;;;;;;;17.77;11.48;;;;;;;7.03;51.72;94838.69;5091189;27;20069;-76
2022/11/14 02:14:41;;;;;;;19.83;10.73;;;;;;;7.10;51.65;94864.84;5091160;27;20546;-76
2022/11/14 02:17:06;;;;;;;19.27;10.07;;;;;;;7.14;51.86;94858.75;5088740;27;20536;-76
2022/11/14 02:19:48;;;;;;;17.60;9.82;;;;;;;6.73;51.62;94791.09;5074039;28;20028;-76
2022/11/14 02:22:13;;;;;;;18.00;9.07;;;;;;;7.02;51.28;94836.28;5049507;28;20036;-76
2022/11/14 02:24:39;;;;;;;15.60;8.30;;;;;;;6.85;51.59;94816.19;5056688;28;20029;-76
2022/11/14 02:27:05;;;;;;;15.30;8.60;;;;;;;6.98;51.76;94836.03;5050614;28;20029;-77
2022/11/14 02:29:32;;;;;;;16.30;7.72;;;;;;;7.10;51.64;94859.56;5048223;28;20210;-76
2022/11/14 02:31:58;;;;;;;16.05;7.95;;;;;;;6.83;51.44;94818.31;5050434;28;20545;-76
2022/11/14 02:34:24;;;;;;;12.88;8.48;;;;;;;7.04;51.52;94850.06;5050287;28;20054;-76
2022/11/14 02:36:49;;;;;;;11.80;7.47;;;;;;;7.09;51.64;94855.34;5055239;28;20025;-76
2022/11/14 02:39:15;;;;;;;11.43;7.18;;;;;;;6.99;51.77;94842.94;5051447;28;20119;-76
2022/11/14 02:41:40;;;;;;;9.52;5.38;;;;;;;7.08;51.87;94861.69;5048372;28;20020;-76
2022/11/14 02:44:06;;;;;;;8.73;5.80;;;;;;;7.04;51.67;94855.34;5049043;28;20043;-77
2022/11/14 02:46:31;;;;;;;10.18;5.53;;;;;;;6.93;51.80;94845.81;5049985;28;20020;-76
2022/11/14 02:48:56;;;;;;;10.73;6.07;;;;;;;6.96;51.66;94847.94;5052648;28;20438;-76
2022/11/14 02:51:22;;;;;;;10.55;5.88;;;;;;;6.88;51.52;94840.53;5048109;28;20016;-76
2022/11/14 02:53:47;;;;;;;11.77;6.80;;;;;;;6.65;51.84;94799.56;5050496;28;20025;-76
2022/11/14 02:56:12;;;;;;;13.00;8.02;;;;;;;6.84;51.74;94829.69;5048289;28;20048;-76
2022/11/14 02:58:38;;;;;;;14.18;7.25;;;;;;;6.82;51.62;94834.44;5050287;28;20413;-76
2022/11/14 03:01:03;;;;;;;12.48;7.05;;;;;;;6.84;51.40;94835.78;5049368;28;20048;-76
2022/11/14 03:03:29;;;;;;;14.38;8.68;;;;;;;6.95;51.34;94851.63;5051697;28;20388;-76
2022/11/14 03:06:01;;;;;;;22.10;11.73;;;;;;;6.96;51.69;94854.00;5047997;28;20499;-76
2022/11/14 03:08:26;;;;;;;18.02;10.65;;;;;;;6.95;51.58;94846.34;5049888;28;20035;-76
2022/11/14 03:10:52;;;;;;;18.88;12.30;;;;;;;6.71;51.53;94812.50;5064002;28;20422;-76
2022/11/14 03:13:17;;;;;;;22.65;12.05;;;;;;;6.84;51.28;94830.50;5049169;28;20036;-77
2022/11/14 03:15:43;;;;;;;24.77;12.98;;;;;;;6.95;51.36;94854.28;5051280;28;20038;-76
2022/11/14 03:18:08;;;;;;;23.83;13.23;;;;;;;6.87;51.31;94837.09;5048437;28;20029;-76
2022/11/14 03:20:34;;;;;;;25.60;12.32;;;;;;;6.69;51.16;94809.34;5066945;27;20082;-76
2022/11/14 03:22:59;;;;;;;25.65;13.88;;;;;;;6.77;51.27;94832.59;5087680;28;20020;-76
2022/11/14 03:25:25;;;;;;;24.48;14.10;;;;;;;6.88;51.65;94845.81;5090099;27;20483;-76
2022/11/14 03:27:50;;;;;;;26.25;14.15;;;;;;;6.86;51.40;94846.88;5088081;28;20034;-77
2022/11/14 03:30:16;;;;;;;24.60;13.93;;;;;;;6.69;51.45;94819.13;5072237;28;20032;-76
2022/11/14 03:32:41;;;;;;;20.35;10.75;;;;;;;6.80;51.04;94844.47;5088086;28;20536;-76
2022/11/14 03:35:07;;;;;;;17.70;8.73;;;;;;;6.67;51.45;94829.16;5090088;28;20035;-75
2022/11/14 03:37:32;;;;;;;16.30;8.93;;;;;;;6.72;51.40;94845.81;5089469;28;20020;-76
2022/11/14 03:39:58;;;;;;;16.00;8.40;;;;;;;6.60;51.04;94823.34;5087506;28;20024;-75
2022/11/14 03:42:23;;;;;;;11.35;7.40;;;;;;;6.65;51.49;94831.28;5090820;28;20055;-77
2022/11/14 03:44:49;;;;;;;9.70;6.93;;;;;;;6.39;51.04;94801.38;5067517;28;20388;-77
2022/11/14 03:47:14;;;;;;;13.48;7.60;;;;;;;6.48;50.93;94813.00;5089462;28;20158;-77
2022/11/14 03:49:39;;;;;;;14.48;6.65;;;;;;;6.60;51.08;94837.34;5089063;28;20024;-76
2022/11/14 03:52:05;;;;;;;9.68;5.97;;;;;;;6.46;51.24;94815.13;5069342;28;20035;-76
2022/11/14 03:54:30;;;;;;;12.48;8.07;;;;;;;6.42;51.29;94812.22;5089823;28;20063;-76
2022/11/14 03:56:55;;;;;;;15.90;9.30;;;;;;;6.39;51.08;94807.47;5072995;28;20030;-77
2022/11/14 03:59:21;;;;;;;14.40;9.23;;;;;;;6.16;51.15;94775.47;5089510;28;20476;-76
2022/11/14 04:01:47;;;;;;;24.55;11.95;;;;;;;6.57;51.14;94840.50;5087593;28;20028;-76
2022/11/14 04:04:13;;;;;;;21.80;12.40;;;;;;;6.50;51.47;94828.63;5091140;28;20423;-76
2022/11/14 04:06:39;;;;;;;21.33;11.10;;;;;;;6.50;51.34;94833.91;5093188;28;20462;-77
2022/11/14 04:09:05;;;;;;;26.23;15.05;;;;;;;6.50;51.67;94829.41;5087676;28;20053;-76
2022/11/14 04:11:31;;;;;;;30.52;14.50;;;;;;;6.29;51.86;94801.38;5089385;28;20452;-76
2022/11/14 04:13:56;;;;;;;27.65;14.63;;;;;;;6.52;51.96;94837.84;5088561;28;20492;-76
2022/11/14 04:16:22;;;;;;;29.52;16.35;;;;;;;6.53;51.96;94839.44;5072043;27;20019;-76
2022/11/14 04:18:47;;;;;;;35.55;15.32;;;;;;;6.38;51.70;94823.56;5091178;27;20122;-76
2022/11/14 04:21:13;;;;;;;31.85;16.52;;;;;;;6.33;51.58;94808.50;5091529;27;20403;-76
2022/11/14 04:23:38;;;;;;;30.98;17.38;;;;;;;6.39;51.44;94817.22;5090217;27;20023;-76
2022/11/14 04:26:04;;;;;;;31.27;16.65;;;;;;;6.31;51.28;94807.97;5093968;27;20063;-76
2022/11/14 04:28:29;;;;;;;25.30;15.35;;;;;;;6.42;51.39;94828.06;5091980;27;20020;-76
2022/11/14 04:30:54;;;;;;;29.58;15.70;;;;;;;6.31;51.35;94817.75;5093064;27;20051;-76
2022/11/14 04:33:20;;;;;;;27.48;15.02;;;;;;;6.24;51.44;94806.63;5094187;27;20488;-76
2022/11/14 04:35:45;;;;;;;27.90;14.73;;;;;;;6.39;51.54;94817.22;5074666;28;20107;-76
2022/11/14 04:38:10;;;;;;;17.95;9.95;;;;;;;6.40;51.21;94824.91;5090880;28;20028;-76
2022/11/14 04:40:36;;;;;;;12.93;7.85;;;;;;;6.33;51.37;94815.63;5075885;27;20059;-77
2022/11/14 04:43:01;;;;;;;19.42;10.40;;;;;;;6.38;51.31;94829.66;5091732;27;20467;-76
2022/11/14 04:45:27;;;;;;;19.63;10.70;;;;;;;6.24;51.20;94809.28;5091163;27;20024;-76
2022/11/14 04:47:52;;;;;;;18.80;10.02;;;;;;;6.24;51.09;94806.63;5075235;27;20024;-76
2022/11/14 04:50:17;;;;;;;20.55;11.63;;;;;;;6.12;51.42;94798.13;5090145;27;22530;-76
2022/11/14 04:52:43;;;;;;;20.80;11.32;;;;;;;6.32;51.33;94829.88;5091347;27;20012;-76
2022/11/14 04:55:09;;;;;;;19.10;10.50;;;;;;;6.24;51.64;94817.19;5091611;27;20391;-76
2022/11/14 04:57:34;;;;;;;22.10;12.32;;;;;;;6.22;51.08;94816.66;5090785;27;20111;-77
2022/11/14 05:00:00;;;;;;;17.17;10.30;;;;;;;6.24;51.10;94811.91;5074182;27;20107;-77
2022/11/14 05:02:25;;;;;;;15.13;9.30;;;;;;;6.07;51.32;94795.50;5092145;27;20433;-76
2022/11/14 05:04:50;;;;;;;14.98;9.27;;;;;;;6.19;51.13;94812.69;5092136;27;20020;-76
2022/11/14 05:07:16;;;;;;;16.05;10.32;;;;;;;6.07;51.73;94798.91;5073061;27;20026;-76
2022/11/14 05:09:41;;;;;;;19.73;10.13;;;;;;;5.94;51.63;94784.34;5094374;27;20372;-76
2022/11/14 05:12:07;;;;;;;19.83;12.10;;;;;;;6.00;51.25;94804.44;5091035;27;21025;-76
2022/11/14 05:14:32;;;;;;;21.52;12.77;;;;;;;6.13;51.48;94818.19;5094419;27;20085;-76
2022/11/14 05:16:58;;;;;;;34.42;18.73;;;;;;;6.00;51.43;94803.66;5090222;27;20073;-75
2022/11/14 05:19:23;;;;;;;30.08;18.33;;;;;;;6.09;51.22;94822.41;5093492;27;20364;-76
2022/11/14 05:21:49;;;;;;;38.70;18.80;;;;;;;6.11;51.52;94830.88;5089606;28;20585;-76
2022/11/14 05:24:14;;;;;;;34.67;18.73;;;;;;;5.92;51.65;94812.09;5081484;27;20027;-76
2022/11/14 05:26:40;;;;;;;41.95;19.67;;;;;;;5.99;51.62;94823.19;5091930;28;20026;-76
2022/11/14 05:29:06;;;;;;;40.28;21.02;;;;;;;6.12;51.86;94843.00;5090385;27;20035;-76
2022/11/14 05:31:31;;;;;;;41.90;23.27;;;;;;;5.92;51.74;94812.09;5092743;27;20157;-76
2022/11/14 05:33:57;;;;;;;38.40;20.58;;;;;;;6.13;51.79;94845.41;5089710;27;20088;-76
2022/11/14 05:36:22;;;;;;;40.70;22.10;;;;;;;6.07;51.55;94840.38;5089994;27;20479;-76
2022/11/14 05:38:48;;;;;;;42.03;22.45;;;;;;;6.13;51.60;94844.59;5088828;27;20031;-76
2022/11/14 05:41:16;;;;;;;38.92;22.67;;;;;;;6.03;51.77;94826.88;5092751;27;20519;-75
2022/11/14 05:43:42;;;;;;;40.63;22.80;;;;;;;5.99;51.74;94829.25;5078476;28;20024;-76
2022/11/14 05:46:10;;;;;;;41.03;22.17;;;;;;;6.13;51.80;94848.03;5090062;27;20076;-77
2022/11/14 05:48:36;;;;;;;42.78;23.17;;;;;;;5.87;51.95;94810.19;5091970;27;20062;-76
2022/11/14 05:51:03;;;;;;;36.33;22.63;;;;;;;6.00;52.40;94836.13;5079814;28;20127;-77
2022/11/14 05:53:30;;;;;;;41.05;23.20;;;;;;;6.07;52.46;94845.66;5090169;27;20020;-76
2022/11/14 05:56:00;;;;;;;41.03;22.77;;;;;;;6.09;52.97;94843.53;5091290;27;20030;-75
2022/11/14 05:58:26;;;;;;;42.92;21.70;;;;;;;6.17;52.83;94857.06;5090941;27;20051;-77
2022/11/14 06:00:51;;;;;;;50.70;22.10;;;;;;;6.14;52.89;94835.63;5089511;27;20103;-76
2022/11/14 06:03:16;;;;;;;47.75;22.73;;;;;;;6.15;53.20;94842.50;5090727;27;20032;-76
2022/11/14 06:05:42;;;;;;;48.80;23.45;;;;;;;5.98;53.12;94822.38;5091586;27;20119;-76
2022/11/14 06:08:08;;;;;;;49.70;22.85;;;;;;;6.02;53.19;94823.44;5091798;27;20521;-76
2022/11/14 06:10:34;;;;;;;46.08;24.35;;;;;;;6.09;53.48;94848.81;5089934;28;20023;-76
2022/11/14 06:12:59;;;;;;;51.58;28.23;;;;;;;6.20;53.53;94866.34;5089787;27;20115;-76
2022/11/14 06:15:25;;;;;;;49.58;24.77;;;;;;;6.05;53.88;94848.56;5088852;28;20407;-76
2022/11/14 06:17:53;;;;;;;52.10;26.58;;;;;;;6.07;53.85;94851.72;5069188;28;20027;-76
2022/11/14 06:20:19;;;;;;;53.83;25.52;;;;;;;6.06;54.11;94846.72;5090642;27;20075;-76
2022/11/14 06:22:45;;;;;;;53.78;26.25;;;;;;;6.17;53.85;94864.19;5091591;28;20549;-75
2022/11/14 06:25:10;;;;;;;56.97;26.63;;;;;;;6.25;53.80;94875.06;5090093;27;20031;-76
2022/11/14 06:27:35;;;;;;;50.03;25.77;;;;;;;6.27;53.94;94867.66;5091216;27;20395;-77
2022/11/14 06:30:01;;;;;;;47.97;23.73;;;;;;;6.25;54.15;94864.50;5088755;27;20031;-76
2022/11/14 06:32:26;;;;;;;46.15;24.80;;;;;;;6.25;54.02;94867.16;5081052;27;20364;-76
2022/11/14 06:34:52;;;;;;;43.97;24.30;;;;;;;6.00;54.31;94841.41;5088492;27;20040;-77
2022/11/14 06:37:17;;;;;;;56.50;26.70;;;;;;;6.14;54.54;94856.75;5087996;27;20489;-76
2022/11/14 06:39:43;;;;;;;45.25;23.08;;;;;;;6.11;54.60;94867.88;5087548;28;20023;-76
2022/11/14 06:42:08;;;;;;;49.75;24.23;;;;;;;6.06;54.65;94860.72;5089772;27;20028;-76
2022/11/14 06:44:33;;;;;;;47.42;25.70;;;;;;;6.03;54.68;94861.22;5085435;27;20478;-76
2022/11/14 06:46:59;;;;;;;50.88;25.35;;;;;;;5.93;55.04;94846.13;5083322;27;20023;-76
2022/11/14 06:49:24;;;;;;;47.13;24.83;;;;;;;5.95;55.35;94830.84;5089425;27;20073;-75
2022/11/14 06:51:50;;;;;;;41.05;22.85;;;;;;;5.88;55.70;94842.66;5075205;28;20032;-76
2022/11/14 06:54:15;;;;;;;45.20;23.35;;;;;;;5.93;55.87;94861.97;5090882;28;20601;-76
2022/11/14 06:56:41;;;;;;;45.22;22.98;;;;;;;5.94;55.71;94836.38;5091490;27;20839;-76
2022/11/14 06:59:06;;;;;;;49.40;25.38;;;;;;;5.87;55.76;94839.22;5087807;27;20038;-76
2022/11/14 07:01:32;;;;;;;49.65;24.58;;;;;;;5.96;56.24;94840.34;5090882;28;20030;-77
2022/11/14 07:03:59;;;;;;;47.83;24.70;;;;;;;6.08;56.11;94849.88;5088004;27;20557;-77
2022/11/14 07:06:26;;;;;;;42.13;22.83;;;;;;;6.06;55.99;94849.34;5089290;27;20061;-78
2022/11/14 07:08:53;;;;;;;44.92;24.85;;;;;;;5.93;55.76;94832.94;5068473;28;20607;-76
2022/11/14 07:11:21;;;;;;;42.25;23.88;;;;;;;5.80;56.07;94812.28;5088903;27;20020;-76
2022/11/14 07:14:01;;;;;;;44.97;24.17;;;;;;;6.12;56.03;94838.53;5076960;28;20027;-75
2022/11/14 07:16:33;;;;;;;50.05;25.45;;;;;;;5.99;56.31;94823.19;5072616;28;20032;-76
2022/11/14 07:19:00;;;;;;;45.65;23.58;;;;;;;6.20;56.38;94856.56;5076798;28;20037;-76
2022/11/14 07:21:27;;;;;;;56.20;27.83;;;;;;;6.15;56.70;94856.50;5080325;28;20040;-76
2022/11/14 07:23:53;;;;;;;48.67;25.73;;;;;;;6.20;57.29;94858.41;5087518;28;20055;-76
2022/11/14 07:26:22;;;;;;;48.72;24.83;;;;;;;6.26;57.05;94857.38;5089586;27;20186;-77
2022/11/14 07:28:48;;;;;;;53.38;25.85;;;;;;;6.16;57.09;94844.13;5086217;28;20046;-77
2022/11/14 07:31:15;;;;;;;51.60;24.25;;;;;;;6.11;57.25;94817.69;5070856;28;20544;-77
2022/11/14 07:33:42;;;;;;;54.63;26.10;;;;;;;6.21;57.05;94825.66;5091387;28;20569;-76
2022/11/14 07:36:09;;;;;;;60.55;26.63;;;;;;;6.23;56.80;94857.88;5089499;28;20056;-77
2022/11/14 07:38:36;;;;;;;56.33;26.60;;;;;;;6.35;56.98;94853.16;5064208;28;20575;-76
2022/11/14 07:41:09;;;;;;;53.03;24.42;;;;;;;6.28;56.79;94842.84;5085918;28;20020;-76
2022/11/14 07:43:35;;;;;;;47.83;24.92;;;;;;;6.18;56.88;94834.09;5084879;28;20039;-76
2022/11/14 07:46:05;;;;;;;44.75;22.83;;;;;;;6.23;56.66;94842.81;5066598;28;20028;-76
2022/11/14 07:48:31;;;;;;;58.45;30.83;;;;;;;6.30;56.62;94845.22;5085337;28;20153;-76
2022/11/14 07:51:00;;;;;;;48.90;25.30;;;;;;;6.24;57.17;94825.13;5086259;27;20225;-76
2022/11/14 07:53:27;;;;;;;52.22;24.90;;;;;;;6.42;56.93;94829.91;5078076;27;20023;-75
2022/11/14 07:55:52;;;;;;;50.70;26.63;;;;;;;6.42;57.51;94817.50;5074227;28;20543;-76
2022/11/14 07:58:18;;;;;;;46.33;24.98;;;;;;;6.38;57.22;94799.78;5071418;28;20034;-77
2022/11/14 08:00:46;;;;;;;51.25;27.25;;;;;;;6.59;57.01;94825.19;5090689;28;20034;-76
2022/11/14 08:03:14;;;;;;;57.90;25.23;;;;;;;6.67;57.19;94823.88;5089153;27;20031;-76
2022/11/14 08:05:40;;;;;;;57.35;25.65;;;;;;;6.66;57.08;94820.44;5076790;27;20057;-76
2022/11/14 08:08:05;;;;;;;60.15;27.95;;;;;;;6.45;57.01;94784.47;5087534;28;20032;-77
2022/11/14 08:10:31;;;;;;;56.50;28.95;;;;;;;6.80;57.10;94824.13;5085700;27;20042;-76
2022/11/14 08:13:07;;;;;;;50.55;27.23;;;;;;;6.74;57.36;94803.25;5086286;27;20437;-76
2022/11/14 08:15:32;;;;;;;57.42;30.35;;;;;;;6.79;57.29;94795.31;5069998;28;20024;-76
2022/11/14 08:17:59;;;;;;;69.95;26.90;;;;;;;6.80;57.21;94837.34;5091298;27;20395;-76
2022/11/14 08:20:26;;;;;;;61.47;27.80;;;;;;;6.50;58.42;94840.00;5069272;28;20044;-76
2022/11/14 08:22:53;;;;;;;61.35;28.65;;;;;;;6.23;59.63;94834.09;5091232;27;20032;-76
2022/11/14 08:25:18;;;;;;;63.58;28.98;;;;;;;6.18;59.77;94820.88;5086737;27;20398;-76
2022/11/14 08:27:43;;;;;;;59.75;29.30;;;;;;;6.52;59.25;94824.63;5087126;27;20027;-77
2022/11/14 08:30:09;;;;;;;66.47;30.10;;;;;;;6.56;58.97;94814.31;5089326;27;20455;-76
2022/11/14 08:32:35;;;;;;;64.50;31.85;;;;;;;6.36;59.55;94813.25;5087108;27;20062;-76
2022/11/14 08:35:00;;;;;;;65.57;30.70;;;;;;;6.46;59.44;94795.84;5092858;27;20224;-77
2022/11/14 08:37:26;;;;;;;60.53;28.25;;;;;;;6.22;59.89;94806.09;5089880;27;20615;-76
2022/11/14 08:39:51;;;;;;;62.80;30.20;;;;;;;6.31;60.50;94809.84;5081942;27;20027;-76
2022/11/14 08:42:16;;;;;;;68.90;31.90;;;;;;;6.37;59.98;94795.56;5072473;28;20039;-76
2022/11/14 08:44:44;;;;;;;68.95;30.85;;;;;;;6.71;59.43;94823.06;5090856;27;20348;-76
2022/11/14 08:47:10;;;;;;;74.57;33.92;;;;;;;6.68;59.61;94813.03;5091900;27;20027;-76
2022/11/14 08:49:35;;;;;;;76.60;33.22;;;;;;;6.73;59.47;94791.09;5091512;27;20392;-76
2022/11/14 08:52:00;;;;;;;58.95;31.13;;;;;;;7.00;59.44;94818.03;5073538;27;20500;-76
2022/11/14 08:54:26;;;;;;;68.82;33.47;;;;;;;6.64;59.75;94777.63;5087932;27;20027;-76
2022/11/14 08:56:51;;;;;;;70.20;29.60;;;;;;;6.65;59.71;94786.34;5074185;27;20534;-76
2022/11/14 08:59:19;;;;;;;63.80;29.38;;;;;;;6.47;60.96;94814.06;5089072;27;20031;-76
2022/11/14 09:01:45;;;;;;;61.42;31.50;;;;;;;6.26;60.99;94796.63;5070783;28;20045;-76
2022/11/14 09:04:10;;;;;;;62.47;29.20;;;;;;;5.86;61.97;94734.69;5073529;28;20020;-76
2022/11/14 09:06:36;;;;;;;64.90;29.35;;;;;;;6.43;61.57;94789.22;5088125;27;20031;-76
2022/11/14 09:09:01;;;;;;;63.72;31.17;;;;;;;6.62;61.03;94779.72;5079375;27;20410;-77
2022/11/14 09:11:30;;;;;;;62.50;29.90;;;;;;;6.73;60.69;94791.88;5067299;27;20115;-76
2022/11/14 09:13:55;;;;;;;66.65;29.50;;;;;;;5.93;61.53;94710.66;5090992;27;20023;-76
2022/11/14 09:16:20;;;;;;;66.93;30.50;;;;;;;6.42;61.93;94769.13;5088115;27;20023;-76
2022/11/14 09:18:46;;;;;;;69.00;30.98;;;;;;;6.80;61.24;94783.66;5090115;28;20032;-76
2022/11/14 09:21:15;;;;;;;61.38;31.15;;;;;;;6.75;61.10;94752.75;5070816;28;20043;-76
2022/11/14 09:23:40;;;;;;;69.93;31.00;;;;;;;6.82;61.02;94763.84;5086868;27;20483;-76
2022/11/14 09:26:07;;;;;;;63.33;31.27;;;;;;;6.83;60.45;94746.13;5087997;27;20565;-76
2022/11/14 09:28:36;;;;;;;66.40;32.75;;;;;;;7.04;59.67;94760.13;5088822;27;20027;-76
2022/11/14 09:31:08;;;;;;;67.47;31.77;;;;;;;7.02;59.66;94767.53;5086476;27;20031;-76
2022/11/14 09:33:34;;;;;;;70.90;34.15;;;;;;;6.57;60.15;94745.34;5073077;28;20121;-76
2022/11/14 09:36:04;;;;;;;67.10;32.65;;;;;;;7.11;60.19;94773.84;5066343;27;20027;-76
2022/11/14 09:38:30;;;;;;;66.30;35.60;;;;;;;7.26;59.56;94765.88;5090802;27;20080;-76
2022/11/14 09:41:07;;;;;;;61.97;33.53;;;;;;;7.29;59.47;94774.06;5089926;28;20491;-76
2022/11/14 09:43:39;;;;;;;69.70;33.22;;;;;;;7.57;59.14;94767.38;5092337;27;20039;-76
2022/11/14 09:46:20;;;;;;;68.97;34.03;;;;;;;7.35;59.03;94756.34;5087984;27;20414;-76
2022/11/14 09:48:46;;;;;;;76.93;35.78;;;;;;;6.92;59.71;94704.06;5091326;27;20039;-76
2022/11/14 09:51:41;;;;;;;70.90;37.75;;;;;;;7.60;59.04;94732.41;5090304;27;20469;-76
2022/11/14 09:54:25;;;;;;;72.07;35.83;;;;;;;7.90;57.90;94755.34;5061534;28;20491;-76
2022/11/14 09:56:51;;;;;;;75.65;34.53;;;;;;;7.80;57.68;94730.75;5087860;28;20212;-76
2022/11/14 09:59:16;;;;;;;64.35;34.72;;;;;;;7.94;57.44;94726.44;5087011;27;20732;-77
2022/11/14 10:02:17;;;;;;;62.08;34.60;;;;;;;8.18;57.12;94735.31;5073847;27;20020;-76
2022/11/14 10:04:59;;;;;;;76.38;35.58;;;;;;;7.92;56.56;94710.06;5054177;28;20373;-76
2022/11/14 10:07:30;;;;;;;71.70;34.38;;;;;;;8.06;57.09;94724.25;5069593;28;20676;-76
2022/11/14 10:10:37;;;;;;;66.70;31.70;;;;;;;8.07;57.37;94694.06;5080620;28;20036;-77
2022/11/14 10:13:13;;;;;;;60.78;32.13;;;;;;;7.97;57.09;94699.44;5053260;28;20127;-77
2022/11/14 10:15:45;;;;;;;57.88;31.08;;;;;;;7.88;56.58;94695.75;5087295;28;20778;-75
2022/11/14 10:18:44;;;;;;;58.45;29.90;;;;;;;7.86;57.52;94711.13;5077787;27;20062;-76
2022/11/14 10:21:29;;;;;;;52.20;28.00;;;;;;;8.21;56.73;94716.22;5076982;28;20052;-76
2022/11/14 10:24:28;;;;;;;59.22;30.45;;;;;;;8.08;56.71;94706.22;5063649;28;20815;-76
2022/11/14 10:27:01;;;;;;;52.70;27.92;;;;;;;8.13;56.68;94682.34;5083648;28;20027;-76
2022/11/14 10:29:51;;;;;;;53.33;28.33;;;;;;;8.00;56.34;94688.28;5085194;28;20130;-76
2022/11/14 10:32:35;;;;;;;62.05;29.17;;;;;;;8.34;55.97;94704.97;5074069;28;20023;-77
2022/11/14 10:35:14;;;;;;;54.15;31.08;;;;;;;8.24;56.41;94697.09;5084021;28;20054;-75
2022/11/14 10:37:58;;;;;;;56.95;28.95;;;;;;;8.21;56.35;94692.38;5069223;28;20035;-76
2022/11/14 10:40:39;;;;;;;61.28;29.83;;;;;;;8.16;56.75;94681.81;5089987;28;20031;-76
2022/11/14 10:43:36;;;;;;;54.95;28.77;;;;;;;8.56;55.90;94685.97;5074199;28;20028;-76
2022/11/14 10:46:20;;;;;;;53.42;28.73;;;;;;;8.69;55.74;94685.34;5075430;28;20495;-77
2022/11/14 10:48:49;;;;;;;52.25;29.20;;;;;;;8.86;55.14;94675.06;5075469;28;20043;-75
2022/11/14 10:51:37;;;;;;;57.55;29.60;;;;;;;8.96;55.20;94674.97;5087826;28;20144;-76
2022/11/14 10:54:08;;;;;;;60.97;31.38;;;;;;;9.15;54.38;94674.25;5086480;28;20057;-76
2022/11/14 10:56:44;;;;;;;64.70;30.33;;;;;;;9.03;54.51;94672.00;5088496;28;20057;-77
2022/11/14 10:59:10;;;;;;;60.45;31.08;;;;;;;8.95;54.01;94646.09;5086950;28;20129;-76
2022/11/14 11:01:45;;;;;;;61.97;31.25;;;;;;;9.30;54.18;94664.25;5089369;28;20036;-76
2022/11/14 11:04:25;;;;;;;51.97;29.40;;;;;;;8.80;54.21;94604.59;5087757;28;20027;-76
2022/11/14 11:06:55;;;;;;;69.82;31.75;;;;;;;9.20;53.59;94616.59;5075289;28;20029;-76
2022/11/14 11:12:13;;;;;;;54.10;29.30;;;;;;;9.58;52.89;94657.28;5087839;28;20027;-76
2022/11/14 11:14:39;;;;;;;60.97;30.45;;;;;;;9.86;52.65;94636.97;5086087;28;20440;-77
2022/11/14 11:17:10;;;;;;;57.88;31.25;;;;;;;10.06;52.32;94646.50;5085574;28;20040;-77
2022/11/14 11:19:40;;;;;;;64.85;32.85;;;;;;;10.17;51.76;94646.06;5069867;28;20609;-76
2022/11/14 11:22:23;;;;;;;61.58;30.33;;;;;;;10.26;51.45;94639.03;5071117;28;20027;-77
2022/11/14 11:24:49;;;;;;;61.05;32.92;;;;;;;9.95;51.20;94611.31;5085766;28;20063;-76
2022/11/14 11:27:19;;;;;;;59.13;30.73;;;;;;;10.41;50.77;94635.34;5088701;28;20342;-76
2022/11/14 11:29:44;;;;;;;62.20;31.70;;;;;;;10.58;50.84;94632.13;5085870;28;20093;-76
2022/11/14 11:32:10;;;;;;;63.80;32.08;;;;;;;10.71;50.37;94634.00;5090780;28;20134;-77
2022/11/14 11:34:35;;;;;;;60.65;32.30;;;;;;;10.70;49.97;94613.84;5087475;28;20028;-77